Time;durP1;ratioP1;P1;durP2;ratioP2;P2;SDS_P1;SDS_P2;PMS_P1;PMS_P2;Temp;Humidity;BMP_temperature;BMP_pressure;BME280_temperature;BME280_humidity;BME280_pressure;Samples;Min_cycle;Max_cycle;Signal;HPM_P1;HPM_P2
2022/08/28 00:01:03;;;;;;;;;;;21.60;42.20;;;;;;464459;255;1296;-49
2022/08/28 00:03:04;;;;;;;;;;;21.60;42.20;;;;;;464606;255;1344;-50
2022/08/28 00:05:05;;;;;;;;;;;21.70;42.30;;;;;;464251;256;1189;-49
2022/08/28 00:07:07;;;;;;;;;;;21.60;42.20;;;;;;464285;256;1319;-49
2022/08/28 00:09:08;;;;;;;;;;;21.70;42.30;;;;;;464519;255;1229;-49
2022/08/28 00:11:09;;;;;;;;;;;21.60;42.20;;;;;;464354;255;2171;-50
2022/08/28 00:13:14;;;;;;;;;;;21.70;42.30;;;;;;464675;255;1218;-49
2022/08/28 00:15:12;;;;;;;;;;;21.60;42.20;;;;;;464241;255;2353;-50
2022/08/28 00:17:13;;;;;;;;;;;21.60;42.20;;;;;;464606;255;1273;-49
2022/08/28 00:19:15;;;;;;;;;;;21.60;42.20;;;;;;464657;255;1327;-49
2022/08/28 00:21:16;;;;;;;;;;;21.60;42.30;;;;;;464592;255;1296;-49
2022/08/28 00:23:17;;;;;;;;;;;21.60;42.20;;;;;;464613;255;1389;-48
2022/08/28 00:25:19;;;;;;;;;;;21.60;42.20;;;;;;464162;256;1236;-49
2022/08/28 00:29:40;;;;;;;;;;;21.60;42.20;;;;;;464236;257;1245;-49
2022/08/28 00:31:40;;;;;;;;;;;21.60;42.20;;;;;;464253;256;2249;-49
2022/08/28 00:33:42;;;;;;;;;;;21.70;42.20;;;;;;464259;256;1254;-50
2022/08/28 00:35:43;;;;;;;;;;;21.70;42.20;;;;;;464573;255;1211;-50
2022/08/28 00:37:44;;;;;;;;;;;21.60;42.10;;;;;;464105;255;1274;-50
2022/08/28 00:39:46;;;;;;;;;;;21.60;42.10;;;;;;464231;256;1200;-49
2022/08/28 00:41:49;;;;;;;;;;;21.70;42.20;;;;;;464690;255;1115;-49
2022/08/28 00:43:49;;;;;;;;;;;21.60;42.10;;;;;;464645;255;2487;-49
2022/08/28 00:45:50;;;;;;;;;;;21.70;42.20;;;;;;464668;255;1233;-49
2022/08/28 00:47:51;;;;;;;;;;;21.70;42.20;;;;;;464279;256;1285;-49
2022/08/28 00:49:52;;;;;;;;;;;21.60;42.10;;;;;;464614;255;1100;-49
2022/08/28 00:52:07;;;;;;;;;;;21.70;42.20;;;;;;464269;255;2167;-49
2022/08/28 00:54:08;;;;;;;;;;;21.60;42.10;;;;;;464242;256;1287;-49
2022/08/28 00:56:10;;;;;;;;;;;21.60;42.10;;;;;;464656;255;1206;-49
2022/08/28 00:58:11;;;;;;;;;;;21.60;42.10;;;;;;464260;256;1242;-49
2022/08/28 01:00:12;;;;;;;;;;;21.70;42.10;;;;;;464243;256;1692;-49
2022/08/28 01:02:14;;;;;;;;;;;21.60;42.10;;;;;;464392;255;1383;-49
2022/08/28 01:04:16;;;;;;;;;;;21.70;42.10;;;;;;464627;255;1401;-49
2022/08/28 01:06:19;;;;;;;;;;;21.70;42.10;;;;;;464189;256;1278;-49
2022/08/28 01:08:18;;;;;;;;;;;21.70;42.10;;;;;;464230;255;1610;-50
2022/08/28 01:10:20;;;;;;;;;;;21.70;42.10;;;;;;464199;256;1292;-49
2022/08/28 01:12:21;;;;;;;;;;;21.60;42.10;;;;;;464520;255;2183;-49
2022/08/28 01:14:22;;;;;;;;;;;21.70;42.10;;;;;;464243;255;1294;-49
2022/08/28 01:16:24;;;;;;;;;;;21.60;42.10;;;;;;464373;255;1310;-50
2022/08/28 01:18:25;;;;;;;;;;;21.70;42.10;;;;;;464231;256;1312;-49
2022/08/28 01:20:26;;;;;;;;;;;21.60;42.20;;;;;;464333;255;1283;-49
2022/08/28 01:22:28;;;;;;;;;;;21.70;42.20;;;;;;464417;255;1250;-49
2022/08/28 01:24:29;;;;;;;;;;;21.60;42.30;;;;;;464651;255;1261;-50
2022/08/28 01:26:30;;;;;;;;;;;21.70;42.30;;;;;;464642;255;1345;-49
2022/08/28 01:28:32;;;;;;;;;;;21.60;42.30;;;;;;464674;255;1369;-49
2022/08/28 01:30:33;;;;;;;;;;;21.60;42.30;;;;;;464360;255;1298;-50
2022/08/28 01:32:34;;;;;;;;;;;21.60;42.30;;;;;;464201;255;2119;-49
2022/08/28 01:34:36;;;;;;;;;;;21.60;42.20;;;;;;464260;256;1301;-50
2022/08/28 01:36:37;;;;;;;;;;;21.70;42.30;;;;;;464254;256;1326;-49
2022/08/28 01:38:38;;;;;;;;;;;21.70;42.20;;;;;;464255;255;1229;-49
2022/08/28 01:40:40;;;;;;;;;;;21.60;42.20;;;;;;464673;255;1411;-49
2022/08/28 01:42:41;;;;;;;;;;;21.70;42.20;;;;;;464245;256;1375;-49
2022/08/28 01:44:42;;;;;;;;;;;21.60;42.20;;;;;;464248;255;1251;-49
2022/08/28 01:46:44;;;;;;;;;;;21.60;42.20;;;;;;464588;255;1369;-50
2022/08/28 01:48:45;;;;;;;;;;;21.60;42.20;;;;;;464645;255;1276;-49
2022/08/28 01:50:47;;;;;;;;;;;21.60;42.20;;;;;;464279;255;1831;-49
2022/08/28 01:52:48;;;;;;;;;;;21.70;42.20;;;;;;464264;256;1310;-50
2022/08/28 01:54:49;;;;;;;;;;;21.70;42.20;;;;;;464358;255;1226;-49
2022/08/28 01:56:51;;;;;;;;;;;21.70;42.20;;;;;;464447;255;1253;-49
2022/08/28 01:58:52;;;;;;;;;;;21.60;42.10;;;;;;464377;255;1315;-49
2022/08/28 02:00:53;;;;;;;;;;;21.60;42.10;;;;;;464297;255;1273;-49
2022/08/28 02:02:55;;;;;;;;;;;21.70;42.20;;;;;;464264;256;1413;-49
2022/08/28 02:04:57;;;;;;;;;;;21.60;42.10;;;;;;464329;255;1275;-49
2022/08/28 02:06:57;;;;;;;;;;;21.60;42.20;;;;;;464599;255;2105;-48
2022/08/28 02:08:59;;;;;;;;;;;21.60;42.10;;;;;;464566;255;1341;-49
2022/08/28 02:11:00;;;;;;;;;;;21.60;42.10;;;;;;464662;255;2167;-50
2022/08/28 02:13:01;;;;;;;;;;;21.60;42.20;;;;;;464184;256;1381;-50
2022/08/28 02:15:03;;;;;;;;;;;21.60;42.20;;;;;;464269;256;1285;-49
2022/08/28 02:17:04;;;;;;;;;;;21.60;42.20;;;;;;464280;256;1293;-50
2022/08/28 02:19:05;;;;;;;;;;;21.60;42.10;;;;;;464672;255;1347;-49
2022/08/28 02:21:07;;;;;;;;;;;21.70;42.10;;;;;;464434;255;1312;-49
2022/08/28 02:23:08;;;;;;;;;;;21.60;42.10;;;;;;464702;255;1228;-49
2022/08/28 02:25:09;;;;;;;;;;;21.60;42.10;;;;;;464265;256;1209;-49
2022/08/28 02:27:11;;;;;;;;;;;21.60;42.10;;;;;;464347;255;1390;-49
2022/08/28 02:29:12;;;;;;;;;;;21.60;42.20;;;;;;464244;256;1329;-49
2022/08/28 02:31:14;;;;;;;;;;;21.60;42.10;;;;;;464231;255;2183;-50
2022/08/28 02:33:15;;;;;;;;;;;21.60;42.10;;;;;;464232;256;2296;-49
2022/08/28 02:35:17;;;;;;;;;;;21.60;42.20;;;;;;464423;254;1407;-49
2022/08/28 02:37:19;;;;;;;;;;;21.60;42.10;;;;;;464196;256;1285;-49
2022/08/28 02:39:19;;;;;;;;;;;21.60;42.20;;;;;;464120;256;1909;-49
2022/08/28 02:41:21;;;;;;;;;;;21.60;42.20;;;;;;464236;256;1214;-49
2022/08/28 02:43:22;;;;;;;;;;;21.60;42.20;;;;;;464340;255;1259;-49
2022/08/28 02:45:23;;;;;;;;;;;21.60;42.10;;;;;;464554;255;1261;-49
2022/08/28 02:47:25;;;;;;;;;;;21.60;42.10;;;;;;464532;255;1261;-49
2022/08/28 02:49:26;;;;;;;;;;;21.60;42.10;;;;;;464320;255;1394;-49
2022/08/28 02:51:27;;;;;;;;;;;21.60;42.10;;;;;;464658;255;2214;-49
2022/08/28 02:53:29;;;;;;;;;;;21.60;42.10;;;;;;464637;255;1282;-49
2022/08/28 02:55:30;;;;;;;;;;;21.60;42.10;;;;;;464204;256;1294;-49
2022/08/28 02:57:31;;;;;;;;;;;21.60;42.10;;;;;;464574;255;1436;-50
2022/08/28 02:59:33;;;;;;;;;;;21.60;42.10;;;;;;464149;256;1294;-49
2022/08/28 03:01:34;;;;;;;;;;;21.70;42.10;;;;;;464218;255;2188;-49
2022/08/28 03:03:35;;;;;;;;;;;21.60;42.20;;;;;;464586;255;1203;-49
2022/08/28 03:05:37;;;;;;;;;;;21.60;42.30;;;;;;464629;255;1267;-49
2022/08/28 03:07:38;;;;;;;;;;;21.60;42.40;;;;;;464260;256;1309;-49
2022/08/28 03:09:40;;;;;;;;;;;21.60;42.40;;;;;;464252;256;1217;-49
2022/08/28 03:11:41;;;;;;;;;;;21.60;42.40;;;;;;464246;256;2256;-50
2022/08/28 03:13:42;;;;;;;;;;;21.60;42.40;;;;;;464187;256;1282;-49
2022/08/28 03:15:43;;;;;;;;;;;21.60;42.30;;;;;;464566;255;1237;-49
2022/08/28 03:17:45;;;;;;;;;;;21.60;42.30;;;;;;464683;255;1254;-49
2022/08/28 03:19:46;;;;;;;;;;;21.60;42.30;;;;;;464494;255;1231;-49
2022/08/28 03:21:47;;;;;;;;;;;21.60;42.30;;;;;;464626;255;1247;-49
2022/08/28 03:23:49;;;;;;;;;;;21.60;42.30;;;;;;464249;256;1272;-50
2022/08/28 03:25:51;;;;;;;;;;;21.70;42.30;;;;;;464458;255;1362;-49
2022/08/28 03:27:52;;;;;;;;;;;21.60;42.20;;;;;;464263;256;2462;-49
2022/08/28 03:29:53;;;;;;;;;;;21.60;42.20;;;;;;464536;255;1226;-49
2022/08/28 03:31:54;;;;;;;;;;;21.60;42.20;;;;;;464347;255;2175;-49
2022/08/28 03:33:56;;;;;;;;;;;21.70;42.30;;;;;;464683;255;1307;-49
2022/08/28 03:35:58;;;;;;;;;;;21.60;42.20;;;;;;464267;255;1339;-49
2022/08/28 03:37:58;;;;;;;;;;;21.60;42.30;;;;;;464250;256;1938;-49
2022/08/28 03:40:00;;;;;;;;;;;21.60;42.20;;;;;;464359;255;1219;-49
2022/08/28 03:42:01;;;;;;;;;;;21.60;42.20;;;;;;464443;255;1230;-49
2022/08/28 03:44:02;;;;;;;;;;;21.70;42.20;;;;;;464250;256;1437;-50
2022/08/28 03:46:04;;;;;;;;;;;21.60;42.30;;;;;;464550;255;1236;-49
2022/08/28 03:48:06;;;;;;;;;;;21.60;42.20;;;;;;464353;255;1203;-49
2022/08/28 03:50:06;;;;;;;;;;;21.60;42.20;;;;;;464203;256;2116;-50
2022/08/28 03:52:08;;;;;;;;;;;21.60;42.20;;;;;;464630;255;2214;-49
2022/08/28 03:54:09;;;;;;;;;;;21.60;42.10;;;;;;464487;255;1209;-49
2022/08/28 03:56:10;;;;;;;;;;;21.60;42.10;;;;;;464651;255;1251;-50
2022/08/28 03:58:12;;;;;;;;;;;21.70;42.20;;;;;;464605;255;1432;-49
2022/08/28 04:00:13;;;;;;;;;;;21.70;42.20;;;;;;464251;256;1228;-49
2022/08/28 04:02:17;;;;;;;;;;;21.70;42.20;;;;;;464336;255;1456;-50
2022/08/28 04:04:16;;;;;;;;;;;21.70;42.20;;;;;;464474;255;1665;-50
2022/08/28 04:06:18;;;;;;;;;;;21.60;42.10;;;;;;464444;255;1219;-49
2022/08/28 04:08:19;;;;;;;;;;;21.70;42.20;;;;;;464663;255;1588;-50
2022/08/28 04:10:20;;;;;;;;;;;21.60;42.10;;;;;;464658;255;1221;-49
2022/08/28 04:12:21;;;;;;;;;;;21.70;42.20;;;;;;464666;255;2179;-50
2022/08/28 04:14:23;;;;;;;;;;;21.60;42.10;;;;;;464136;256;1185;-49
2022/08/28 04:16:24;;;;;;;;;;;21.60;42.10;;;;;;464332;255;1237;-49
2022/08/28 04:18:25;;;;;;;;;;;21.70;42.10;;;;;;464317;255;1205;-49
2022/08/28 04:20:27;;;;;;;;;;;21.70;42.10;;;;;;464200;256;1223;-49
2022/08/28 04:22:28;;;;;;;;;;;21.60;42.10;;;;;;464676;255;1383;-49
2022/08/28 04:24:29;;;;;;;;;;;21.60;42.10;;;;;;464235;256;1229;-49
2022/08/28 04:26:35;;;;;;;;;;;21.70;42.20;;;;;;464568;255;1307;-49
2022/08/28 04:28:32;;;;;;;;;;;21.70;42.10;;;;;;464211;256;2196;-49
2022/08/28 04:30:34;;;;;;;;;;;21.70;42.10;;;;;;464502;255;1121;-49
2022/08/28 04:32:35;;;;;;;;;;;21.70;42.10;;;;;;464312;255;2201;-48
2022/08/28 04:34:36;;;;;;;;;;;21.70;42.10;;;;;;464592;255;1346;-49
2022/08/28 04:36:38;;;;;;;;;;;21.70;42.10;;;;;;464263;255;1175;-49
2022/08/28 04:38:39;;;;;;;;;;;21.70;42.10;;;;;;464230;255;1287;-49
2022/08/28 04:40:40;;;;;;;;;;;21.70;42.10;;;;;;464243;256;1240;-49
2022/08/28 04:42:43;;;;;;;;;;;21.70;42.10;;;;;;464230;256;1373;-50
2022/08/28 04:44:43;;;;;;;;;;;21.70;42.10;;;;;;464206;255;1373;-49
2022/08/28 04:46:44;;;;;;;;;;;21.70;42.10;;;;;;464103;256;1301;-50
2022/08/28 04:48:46;;;;;;;;;;;21.70;42.10;;;;;;464389;255;1383;-49
2022/08/28 04:50:47;;;;;;;;;;;21.70;42.20;;;;;;464364;255;1442;-49
2022/08/28 04:52:48;;;;;;;;;;;21.70;42.30;;;;;;464585;255;2198;-49
2022/08/28 04:54:50;;;;;;;;;;;21.70;42.30;;;;;;464587;255;1226;-49
2022/08/28 04:56:51;;;;;;;;;;;21.70;42.30;;;;;;464348;255;1615;-48
2022/08/28 04:58:52;;;;;;;;;;;21.70;42.30;;;;;;464246;256;1411;-49
2022/08/28 05:00:54;;;;;;;;;;;21.70;42.30;;;;;;464205;256;1279;-49
2022/08/28 05:02:55;;;;;;;;;;;21.70;42.30;;;;;;464146;256;1349;-49
2022/08/28 05:04:56;;;;;;;;;;;21.70;42.30;;;;;;464632;255;1266;-49
2022/08/28 05:06:58;;;;;;;;;;;21.70;42.30;;;;;;464534;255;1376;-49
2022/08/28 05:08:59;;;;;;;;;;;21.60;42.30;;;;;;464668;255;1277;-49
2022/08/28 05:11:00;;;;;;;;;;;21.60;42.30;;;;;;464589;255;1305;-49
2022/08/28 05:13:02;;;;;;;;;;;21.60;42.20;;;;;;464314;255;2218;-49
2022/08/28 05:15:03;;;;;;;;;;;21.70;42.30;;;;;;464601;255;1189;-49
2022/08/28 05:17:05;;;;;;;;;;;21.70;42.20;;;;;;464468;255;1368;-49
2022/08/28 05:19:06;;;;;;;;;;;21.60;42.20;;;;;;464305;255;1294;-49
2022/08/28 05:21:07;;;;;;;;;;;21.70;42.20;;;;;;464208;255;1241;-49
2022/08/28 05:23:08;;;;;;;;;;;21.70;42.20;;;;;;464348;255;1108;-49
2022/08/28 05:25:10;;;;;;;;;;;21.70;42.20;;;;;;464627;255;1095;-49
2022/08/28 05:27:11;;;;;;;;;;;21.70;42.20;;;;;;464222;256;1341;-49
2022/08/28 05:29:13;;;;;;;;;;;21.70;42.20;;;;;;464414;255;1147;-49
2022/08/28 05:31:14;;;;;;;;;;;21.60;42.20;;;;;;464232;256;1217;-49
2022/08/28 05:33:15;;;;;;;;;;;21.60;42.20;;;;;;464304;255;2198;-49
2022/08/28 05:35:16;;;;;;;;;;;21.60;42.20;;;;;;464684;255;1272;-49
2022/08/28 05:37:18;;;;;;;;;;;21.60;42.20;;;;;;464655;255;1730;-49
2022/08/28 05:39:19;;;;;;;;;;;21.60;42.20;;;;;;464498;255;1690;-49
2022/08/28 05:41:21;;;;;;;;;;;21.70;42.20;;;;;;464541;255;1341;-50
2022/08/28 05:43:22;;;;;;;;;;;21.70;42.20;;;;;;464252;256;2264;-49
2022/08/28 05:45:23;;;;;;;;;;;21.70;42.20;;;;;;464255;256;1252;-50
2022/08/28 05:47:25;;;;;;;;;;;21.60;42.20;;;;;;464489;255;1262;-49
2022/08/28 05:49:27;;;;;;;;;;;21.60;42.20;;;;;;464468;255;1279;-49
2022/08/28 05:51:27;;;;;;;;;;;21.60;42.10;;;;;;464245;256;1461;-49
2022/08/28 05:53:29;;;;;;;;;;;21.70;42.20;;;;;;464656;255;2163;-50
2022/08/28 05:55:30;;;;;;;;;;;21.60;42.10;;;;;;464245;255;1327;-49
2022/08/28 05:57:31;;;;;;;;;;;21.70;42.20;;;;;;464649;255;1299;-49
2022/08/28 05:59:32;;;;;;;;;;;21.60;42.10;;;;;;464657;255;1292;-49
2022/08/28 06:01:34;;;;;;;;;;;21.60;42.10;;;;;;464665;255;1232;-50
2022/08/28 06:03:36;;;;;;;;;;;21.60;42.10;;;;;;464297;255;1357;-49
2022/08/28 06:05:37;;;;;;;;;;;21.60;42.10;;;;;;464360;255;2356;-50
2022/08/28 06:07:38;;;;;;;;;;;21.70;42.20;;;;;;464245;256;1322;-49
2022/08/28 06:09:39;;;;;;;;;;;21.70;42.10;;;;;;464202;256;1271;-49
2022/08/28 06:11:41;;;;;;;;;;;21.70;42.10;;;;;;464555;255;1340;-50
2022/08/28 06:13:42;;;;;;;;;;;21.70;42.10;;;;;;464292;255;2172;-49
2022/08/28 06:15:43;;;;;;;;;;;21.70;42.10;;;;;;464436;255;1322;-49
2022/08/28 06:17:45;;;;;;;;;;;21.60;42.10;;;;;;464534;255;1236;-49
2022/08/28 06:19:46;;;;;;;;;;;21.70;42.10;;;;;;464672;255;1329;-49
2022/08/28 06:21:47;;;;;;;;;;;21.60;42.00;;;;;;464274;255;1301;-49
2022/08/28 06:23:49;;;;;;;;;;;21.70;42.10;;;;;;464262;256;1280;-49
2022/08/28 06:25:50;;;;;;;;;;;21.70;42.10;;;;;;464499;255;1948;-49
2022/08/28 06:27:51;;;;;;;;;;;21.60;42.10;;;;;;464366;255;1254;-50
2022/08/28 06:29:52;;;;;;;;;;;21.70;42.10;;;;;;464667;255;1260;-49
2022/08/28 06:31:54;;;;;;;;;;;21.70;42.10;;;;;;464381;255;1306;-49
2022/08/28 06:33:55;;;;;;;;;;;21.70;42.20;;;;;;464278;255;2187;-49
2022/08/28 06:35:56;;;;;;;;;;;21.70;42.30;;;;;;464307;255;1616;-49
2022/08/28 06:37:58;;;;;;;;;;;21.70;42.30;;;;;;464202;255;1250;-49
2022/08/28 06:39:59;;;;;;;;;;;21.70;42.30;;;;;;464283;255;1425;-50
2022/08/28 06:42:00;;;;;;;;;;;21.70;42.30;;;;;;464212;255;1361;-49
2022/08/28 06:44:02;;;;;;;;;;;21.70;42.30;;;;;;464127;256;1194;-49
2022/08/28 06:46:03;;;;;;;;;;;21.70;42.30;;;;;;464615;255;1224;-50
2022/08/28 06:48:04;;;;;;;;;;;21.60;42.20;;;;;;464402;255;1245;-49
2022/08/28 06:50:06;;;;;;;;;;;21.60;42.30;;;;;;464405;255;1308;-49
2022/08/28 06:52:07;;;;;;;;;;;21.60;42.20;;;;;;464562;255;1376;-49
2022/08/28 06:54:08;;;;;;;;;;;21.60;42.30;;;;;;464166;256;2214;-49
2022/08/28 06:56:10;;;;;;;;;;;21.70;42.30;;;;;;464372;255;1256;-49
2022/08/28 06:58:11;;;;;;;;;;;21.70;42.20;;;;;;464245;256;1448;-49
2022/08/28 07:00:13;;;;;;;;;;;21.60;42.20;;;;;;464443;255;1261;-50
2022/08/28 07:02:14;;;;;;;;;;;21.70;42.20;;;;;;464363;255;1231;-49
2022/08/28 07:04:15;;;;;;;;;;;21.60;42.20;;;;;;464331;255;1313;-49
2022/08/28 07:06:17;;;;;;;;;;;21.60;42.20;;;;;;464281;256;1293;-49
2022/08/28 07:08:18;;;;;;;;;;;21.70;42.20;;;;;;464260;256;1324;-49
2022/08/28 07:10:19;;;;;;;;;;;21.60;42.20;;;;;;464635;255;1229;-49
2022/08/28 07:12:21;;;;;;;;;;;21.60;42.20;;;;;;464353;255;1324;-50
2022/08/28 07:14:22;;;;;;;;;;;21.60;42.20;;;;;;464661;255;2223;-49
2022/08/28 07:16:23;;;;;;;;;;;21.70;42.20;;;;;;464706;255;1247;-49
2022/08/28 07:18:25;;;;;;;;;;;21.60;42.20;;;;;;464535;255;1269;-49
2022/08/28 07:20:26;;;;;;;;;;;21.60;42.20;;;;;;464698;255;1391;-49
2022/08/28 07:22:27;;;;;;;;;;;21.60;42.20;;;;;;464568;255;1270;-49
2022/08/28 07:24:29;;;;;;;;;;;21.70;42.20;;;;;;464314;255;2374;-49
2022/08/28 07:26:30;;;;;;;;;;;21.70;42.20;;;;;;464625;255;1229;-49
2022/08/28 07:28:31;;;;;;;;;;;21.70;42.10;;;;;;464213;255;1282;-49
2022/08/28 07:30:33;;;;;;;;;;;21.70;42.20;;;;;;464295;256;1268;-49
2022/08/28 07:32:34;;;;;;;;;;;21.70;42.20;;;;;;464641;255;1194;-49
2022/08/28 07:34:35;;;;;;;;;;;21.70;42.20;;;;;;464328;255;2206;-49
2022/08/28 07:36:37;;;;;;;;;;;21.70;42.20;;;;;;464684;255;1221;-48
2022/08/28 07:38:38;;;;;;;;;;;21.70;42.20;;;;;;464502;255;1399;-49
2022/08/28 07:40:39;;;;;;;;;;;21.70;42.20;;;;;;464657;255;1303;-49
2022/08/28 07:45:01;;;;;;;;;;;21.70;42.20;;;;;;464558;257;1301;-49
2022/08/28 07:47:02;;;;;;;;;;;21.70;42.10;;;;;;464241;256;2199;-50
2022/08/28 07:49:03;;;;;;;;;;;21.70;42.20;;;;;;464308;255;2287;-49
2022/08/28 07:51:04;;;;;;;;;;;21.60;42.10;;;;;;464568;255;1284;-49
2022/08/28 07:53:05;;;;;;;;;;;21.70;42.20;;;;;;464645;255;2175;-49
2022/08/28 07:55:07;;;;;;;;;;;21.60;42.20;;;;;;464594;255;1241;-49
2022/08/28 07:57:09;;;;;;;;;;;21.60;42.20;;;;;;464231;256;1290;-49
2022/08/28 07:59:10;;;;;;;;;;;21.60;42.10;;;;;;464269;256;1278;-49
2022/08/28 08:01:11;;;;;;;;;;;21.70;42.20;;;;;;464581;255;1231;-49
2022/08/28 08:03:13;;;;;;;;;;;21.60;42.10;;;;;;464355;255;1298;-49
2022/08/28 08:05:14;;;;;;;;;;;21.60;42.10;;;;;;464262;256;1246;-50
2022/08/28 08:07:16;;;;;;;;;;;21.60;42.10;;;;;;464689;255;1372;-49
2022/08/28 08:09:17;;;;;;;;;;;21.60;42.10;;;;;;464666;255;2216;-49
2022/08/28 08:11:19;;;;;;;;;;;21.60;42.10;;;;;;464509;255;1253;-50
2022/08/28 08:13:20;;;;;;;;;;;21.60;42.10;;;;;;464232;256;2381;-49
2022/08/28 08:15:21;;;;;;;;;;;21.60;42.20;;;;;;464536;255;1723;-49
2022/08/28 08:17:22;;;;;;;;;;;21.60;42.30;;;;;;464526;255;1239;-49
2022/08/28 08:19:24;;;;;;;;;;;21.60;42.40;;;;;;464222;256;1573;-49
2022/08/28 08:21:25;;;;;;;;;;;21.60;42.40;;;;;;464640;255;1352;-49
2022/08/28 08:23:27;;;;;;;;;;;21.60;42.40;;;;;;464545;255;1356;-49
2022/08/28 08:25:28;;;;;;;;;;;21.60;42.40;;;;;;464189;255;1405;-49
2022/08/28 08:27:29;;;;;;;;;;;21.60;42.40;;;;;;464357;255;1330;-49
2022/08/28 08:29:30;;;;;;;;;;;21.70;42.40;;;;;;464242;256;1557;-49
2022/08/28 08:31:32;;;;;;;;;;;21.60;42.30;;;;;;464314;255;1242;-49
2022/08/28 08:33:33;;;;;;;;;;;21.60;42.30;;;;;;464229;256;2166;-49
2022/08/28 08:35:35;;;;;;;;;;;21.60;42.30;;;;;;464212;255;1234;-49
2022/08/28 08:37:36;;;;;;;;;;;21.60;42.30;;;;;;464162;256;1339;-49
2022/08/28 08:39:37;;;;;;;;;;;21.60;42.30;;;;;;464231;256;1345;-50
2022/08/28 08:41:38;;;;;;;;;;;21.60;42.20;;;;;;464677;255;1328;-49
2022/08/28 08:43:40;;;;;;;;;;;21.60;42.20;;;;;;464656;255;1125;-49
2022/08/28 08:45:41;;;;;;;;;;;21.60;42.30;;;;;;464281;256;1175;-49
2022/08/28 08:47:42;;;;;;;;;;;21.60;42.20;;;;;;464540;255;1199;-50
2022/08/28 08:49:44;;;;;;;;;;;21.60;42.20;;;;;;464395;255;1358;-50
2022/08/28 08:51:45;;;;;;;;;;;21.60;42.20;;;;;;464676;255;1225;-49
2022/08/28 08:53:46;;;;;;;;;;;21.60;42.20;;;;;;464637;255;2179;-49
2022/08/28 08:55:48;;;;;;;;;;;21.60;42.20;;;;;;464677;255;1295;-49
2022/08/28 08:57:50;;;;;;;;;;;21.60;42.20;;;;;;464431;255;1358;-49
2022/08/28 08:59:51;;;;;;;;;;;21.60;42.30;;;;;;464257;256;1191;-49
2022/08/28 09:01:54;;;;;;;;;;;21.60;42.30;;;;;;464174;256;1291;-49
2022/08/28 09:03:53;;;;;;;;;;;21.60;42.20;;;;;;464204;255;2162;-50
2022/08/28 09:05:55;;;;;;;;;;;21.60;42.20;;;;;;464236;255;1267;-49
2022/08/28 09:07:56;;;;;;;;;;;21.60;42.20;;;;;;464653;255;1280;-50
2022/08/28 09:09:57;;;;;;;;;;;21.60;42.20;;;;;;464577;255;1234;-49
2022/08/28 09:11:59;;;;;;;;;;;21.60;42.20;;;;;;464662;255;1252;-49
2022/08/28 09:14:00;;;;;;;;;;;21.60;42.20;;;;;;464326;255;2174;-49
2022/08/28 09:16:01;;;;;;;;;;;21.70;42.20;;;;;;464259;256;1262;-50
2022/08/28 09:18:03;;;;;;;;;;;21.60;42.20;;;;;;464650;255;1321;-49
2022/08/28 09:20:05;;;;;;;;;;;21.60;42.20;;;;;;464259;256;1402;-49
2022/08/28 09:22:05;;;;;;;;;;;21.60;42.10;;;;;;464204;255;2212;-49
2022/08/28 09:24:07;;;;;;;;;;;21.60;42.20;;;;;;464200;256;1244;-49
2022/08/28 09:26:11;;;;;;;;;;;21.60;42.10;;;;;;464600;255;1231;-49
2022/08/28 09:28:10;;;;;;;;;;;21.60;42.10;;;;;;464508;255;1794;-49
2022/08/28 09:30:11;;;;;;;;;;;21.60;42.10;;;;;;464461;255;1182;-50
2022/08/28 09:32:13;;;;;;;;;;;21.70;42.10;;;;;;464567;255;1658;-49
2022/08/28 09:34:14;;;;;;;;;;;21.60;42.10;;;;;;464562;255;2171;-50
2022/08/28 09:36:15;;;;;;;;;;;21.60;42.20;;;;;;464173;256;1234;-49
2022/08/28 09:38:16;;;;;;;;;;;21.60;42.10;;;;;;464586;255;1206;-50
2022/08/28 09:40:18;;;;;;;;;;;21.60;42.10;;;;;;464385;255;1302;-49
2022/08/28 09:44:58;;;;;;;;;;;21.60;42.10;;;;;;458335;259;1406;-48
2022/08/28 09:46:59;;;;;;;;;;;21.60;42.10;;;;;;458369;259;1254;-50
2022/08/28 09:49:00;;;;;;;;;;;21.60;42.10;;;;;;458602;259;1288;-49
2022/08/28 09:51:03;;;;;;;;;;;21.70;42.20;;;;;;458279;259;1574;-49
2022/08/28 09:53:04;;;;;;;;;;;21.60;42.10;;;;;;458766;259;2139;-49
2022/08/28 09:55:05;;;;;;;;;;;21.70;42.20;;;;;;458401;260;2213;-49
2022/08/28 09:57:06;;;;;;;;;;;21.70;42.10;;;;;;458375;260;1231;-49
2022/08/28 09:59:08;;;;;;;;;;;21.70;42.20;;;;;;458488;259;1178;-49
2022/08/28 10:01:09;;;;;;;;;;;21.60;42.20;;;;;;458355;259;1236;-49
2022/08/28 10:03:13;;;;;;;;;;;21.60;42.30;;;;;;458676;260;1300;-49
2022/08/28 10:05:14;;;;;;;;;;;21.70;42.30;;;;;;458522;260;1380;-49
2022/08/28 10:07:13;;;;;;;;;;;21.70;42.30;;;;;;458240;260;2583;-49
2022/08/28 10:09:14;;;;;;;;;;;21.70;42.30;;;;;;458402;259;1281;-49
2022/08/28 10:11:16;;;;;;;;;;;21.70;42.20;;;;;;458714;260;1166;-49
2022/08/28 10:13:17;;;;;;;;;;;21.60;42.20;;;;;;458322;260;1257;-49
2022/08/28 10:15:18;;;;;;;;;;;21.70;42.30;;;;;;458353;260;2210;-48
2022/08/28 10:17:20;;;;;;;;;;;21.70;42.30;;;;;;464495;257;1241;-50
2022/08/28 10:19:21;;;;;;;;;;;21.60;42.20;;;;;;464682;255;1198;-50
2022/08/28 10:21:22;;;;;;;;;;;21.60;42.20;;;;;;464360;255;1239;-50
2022/08/28 10:23:24;;;;;;;;;;;21.70;42.20;;;;;;464378;255;1306;-49
2022/08/28 10:25:25;;;;;;;;;;;21.70;42.20;;;;;;464503;255;1271;-48
2022/08/28 10:27:26;;;;;;;;;;;21.70;42.20;;;;;;464692;255;1216;-49
2022/08/28 10:29:28;;;;;;;;;;;21.60;42.20;;;;;;464278;256;1208;-49
2022/08/28 10:31:30;;;;;;;;;;;21.70;42.20;;;;;;464573;255;1202;-49
2022/08/28 10:33:30;;;;;;;;;;;21.60;42.20;;;;;;464275;256;2248;-50
2022/08/28 10:35:32;;;;;;;;;;;21.70;42.20;;;;;;464565;255;2182;-50
2022/08/28 10:37:33;;;;;;;;;;;21.70;42.10;;;;;;464604;255;1316;-50
2022/08/28 10:39:34;;;;;;;;;;;21.70;42.10;;;;;;464653;255;1088;-49
2022/08/28 10:41:36;;;;;;;;;;;21.70;42.10;;;;;;464534;255;1253;-49
2022/08/28 10:43:37;;;;;;;;;;;21.70;42.20;;;;;;464632;255;1220;-49
2022/08/28 10:45:39;;;;;;;;;;;21.70;42.20;;;;;;464273;256;1232;-49
2022/08/28 10:47:40;;;;;;;;;;;21.70;42.20;;;;;;464333;255;1314;-50
2022/08/28 10:49:41;;;;;;;;;;;21.70;42.10;;;;;;464367;255;1279;-49
2022/08/28 10:51:42;;;;;;;;;;;21.70;42.10;;;;;;464251;256;1285;-49
2022/08/28 10:53:44;;;;;;;;;;;21.70;42.10;;;;;;464558;255;1264;-49
2022/08/28 10:55:45;;;;;;;;;;;21.70;42.10;;;;;;464654;255;2205;-49
2022/08/28 10:57:47;;;;;;;;;;;21.70;42.10;;;;;;464689;255;1201;-50
2022/08/28 10:59:48;;;;;;;;;;;21.70;42.10;;;;;;464266;256;2385;-50
2022/08/28 11:01:49;;;;;;;;;;;21.70;42.10;;;;;;464664;255;1287;-50
2022/08/28 11:03:50;;;;;;;;;;;21.70;42.10;;;;;;464268;256;1255;-49
2022/08/28 11:05:52;;;;;;;;;;;21.70;42.10;;;;;;464529;255;1255;-49
2022/08/28 11:07:53;;;;;;;;;;;21.70;42.10;;;;;;464338;255;1321;-49
2022/08/28 11:09:55;;;;;;;;;;;21.70;42.00;;;;;;464669;255;1247;-49
2022/08/28 11:11:56;;;;;;;;;;;21.70;42.00;;;;;;464223;256;1297;-49
2022/08/28 11:13:58;;;;;;;;;;;21.70;42.00;;;;;;464461;255;1275;-49
2022/08/28 11:15:58;;;;;;;;;;;21.70;42.00;;;;;;464482;255;2262;-50
2022/08/28 11:18:00;;;;;;;;;;;21.70;42.00;;;;;;464430;255;1304;-49
2022/08/28 11:20:01;;;;;;;;;;;21.70;42.10;;;;;;464366;255;1139;-49
2022/08/28 11:22:03;;;;;;;;;;;21.70;42.00;;;;;;464252;255;1333;-49
2022/08/28 11:24:04;;;;;;;;;;;21.70;42.00;;;;;;464643;255;1080;-50
2022/08/28 11:26:05;;;;;;;;;;;21.70;42.00;;;;;;464606;255;1092;-50
2022/08/28 11:28:06;;;;;;;;;;;21.70;42.00;;;;;;464551;255;1079;-49
2022/08/28 11:30:08;;;;;;;;;;;21.70;42.00;;;;;;464284;256;1117;-49
2022/08/28 11:32:09;;;;;;;;;;;21.70;42.00;;;;;;464371;255;1082;-49
2022/08/28 11:34:10;;;;;;;;;;;21.70;42.00;;;;;;464694;255;1088;-49
2022/08/28 11:36:12;;;;;;;;;;;21.70;42.00;;;;;;464538;255;2171;-49
2022/08/28 11:38:13;;;;;;;;;;;21.70;42.00;;;;;;464422;255;1195;-50
2022/08/28 11:40:15;;;;;;;;;;;21.70;42.00;;;;;;464660;255;1305;-49
2022/08/28 11:42:16;;;;;;;;;;;21.70;42.00;;;;;;464669;255;1271;-49
2022/08/28 11:44:17;;;;;;;;;;;21.70;42.10;;;;;;464676;255;1433;-49
2022/08/28 11:46:18;;;;;;;;;;;21.70;42.20;;;;;;464607;255;1261;-49
2022/08/28 11:48:20;;;;;;;;;;;21.70;42.30;;;;;;464640;255;1234;-49
2022/08/28 11:50:21;;;;;;;;;;;21.70;42.30;;;;;;464111;256;1232;-50
2022/08/28 11:52:22;;;;;;;;;;;21.70;42.30;;;;;;464261;255;1516;-49
2022/08/28 11:54:24;;;;;;;;;;;21.70;42.20;;;;;;464622;255;2181;-49
2022/08/28 11:56:25;;;;;;;;;;;21.70;42.20;;;;;;464581;255;1284;-49
2022/08/28 11:58:26;;;;;;;;;;;21.70;42.20;;;;;;464392;255;1262;-49
2022/08/28 12:00:28;;;;;;;;;;;21.70;42.20;;;;;;464176;256;1242;-49
2022/08/28 12:02:29;;;;;;;;;;;21.70;42.20;;;;;;464228;255;1209;-50
2022/08/28 12:04:30;;;;;;;;;;;21.70;42.10;;;;;;464607;255;1611;-49